createdAt,value
2018-12-09T00:00:23.993Z,84.06
2018-12-09T00:00:58.589Z,83.38
2018-12-09T00:01:33.237Z,83.66
2018-12-09T00:02:07.875Z,84.13
2018-12-09T00:02:42.441Z,84.02
2018-12-09T00:03:16.993Z,84.01
2018-12-09T00:03:51.583Z,84.56
2018-12-09T00:04:26.153Z,84.05
2018-12-09T00:05:01.076Z,84.83
2018-12-09T00:05:36.434Z,84.59
2018-12-09T00:06:11.462Z,84.38
2018-12-09T00:06:46.957Z,84.76
2018-12-09T00:07:21.516Z,84.43
2018-12-09T00:07:56.090Z,83.99
2018-12-09T00:08:30.722Z,83.56
2018-12-09T00:09:06.840Z,83.41
2018-12-09T00:09:41.431Z,82.70
2018-12-09T00:10:16.017Z,82.89
2018-12-09T00:10:50.674Z,82.44
2018-12-09T00:11:25.330Z,82.57
2018-12-09T00:11:59.920Z,82.34
2018-12-09T00:12:34.561Z,82.15
2018-12-09T00:13:09.228Z,80.60
2018-12-09T00:13:43.827Z,80.80
2018-12-09T00:14:18.392Z,80.24
2018-12-09T00:14:53.037Z,81.20
2018-12-09T00:15:27.624Z,81.60
2018-12-09T00:16:02.373Z,81.39
2018-12-09T00:16:36.998Z,80.78
2018-12-09T00:17:12.101Z,80.53
2018-12-09T00:17:46.713Z,80.14
2018-12-09T00:18:21.311Z,81.03
2018-12-09T00:18:55.991Z,79.36
2018-12-09T00:19:30.611Z,79.07
2018-12-09T00:20:06.048Z,78.86
2018-12-09T00:20:40.617Z,79.27
2018-12-09T00:21:15.302Z,78.98
2018-12-09T00:21:49.877Z,79.58
2018-12-09T00:22:24.908Z,77.95
2018-12-09T00:22:59.479Z,78.64
2018-12-09T00:23:34.126Z,78.53
2018-12-09T00:24:09.160Z,78.81
2018-12-09T00:24:43.754Z,78.75
2018-12-09T00:25:18.694Z,78.60
2018-12-09T00:25:53.279Z,78.47
2018-12-09T00:26:28.292Z,78.69
2018-12-09T00:27:02.988Z,78.68
2018-12-09T00:27:37.704Z,78.13
2018-12-09T00:28:12.287Z,77.91
2018-12-09T00:28:46.855Z,78.55
2018-12-09T00:29:21.447Z,78.41
2018-12-09T00:29:56.009Z,78.08
2018-12-09T00:30:30.795Z,78.55
2018-12-09T00:31:05.455Z,78.22
2018-12-09T00:31:40.061Z,77.78
2018-12-09T00:32:14.684Z,76.86
2018-12-09T00:32:49.304Z,76.19
2018-12-09T00:33:24.073Z,75.56
2018-12-09T00:33:59.125Z,76.01
2018-12-09T00:34:33.770Z,75.65
2018-12-09T00:35:08.485Z,75.08
2018-12-09T00:35:43.072Z,75.45
2018-12-09T00:36:17.741Z,75.76
2018-12-09T00:36:52.298Z,75.19
2018-12-09T00:37:26.907Z,75.56
2018-12-09T00:38:01.870Z,75.33
2018-12-09T00:38:36.731Z,76.07
2018-12-09T00:39:11.365Z,75.25
2018-12-09T00:39:46.259Z,75.39
2018-12-09T00:40:20.849Z,75.09
2018-12-09T00:40:55.453Z,75.89
2018-12-09T00:41:30.226Z,75.20
2018-12-09T00:42:04.980Z,75.15
2018-12-09T00:42:43.371Z,74.60
2018-12-09T00:43:16.261Z,74.63
2018-12-09T00:43:50.840Z,74.10
2018-12-09T00:44:25.453Z,75.32
2018-12-09T00:45:00.204Z,74.88
2018-12-09T00:45:34.873Z,74.52
2018-12-09T00:46:09.563Z,74.76
2018-12-09T00:46:44.157Z,74.71
2018-12-09T00:47:18.760Z,74.78
2018-12-09T00:47:53.422Z,73.81
2018-12-09T00:48:27.966Z,74.14
2018-12-09T00:49:02.658Z,73.10
2018-12-09T00:49:37.301Z,72.86
2018-12-09T00:50:11.895Z,72.82
2018-12-09T00:50:47.090Z,73.14
2018-12-09T00:51:21.725Z,72.94
2018-12-09T00:51:56.274Z,72.67
2018-12-09T00:52:30.915Z,72.58
2018-12-09T00:53:06.208Z,73.35
2018-12-09T00:53:40.791Z,72.65
2018-12-09T00:54:15.373Z,73.37
2018-12-09T00:54:49.962Z,72.47
2018-12-09T00:55:24.616Z,72.08
2018-12-09T00:55:59.659Z,72.31
2018-12-09T00:56:34.332Z,72.22
2018-12-09T00:57:09.167Z,72.29
2018-12-09T00:57:43.760Z,72.74
2018-12-09T00:58:18.427Z,73.30
2018-12-09T00:58:53.082Z,72.46
2018-12-09T00:59:27.693Z,72.25
2018-12-09T01:00:02.389Z,72.14
2018-12-09T01:00:37.006Z,72.61
2018-12-09T01:01:12.038Z,71.81
2018-12-09T01:01:46.961Z,70.98
2018-12-09T01:02:21.529Z,71.88
2018-12-09T01:02:56.501Z,72.13
2018-12-09T01:03:31.371Z,72.40
2018-12-09T01:04:06.069Z,72.15
2018-12-09T01:04:40.754Z,71.76
2018-12-09T01:05:15.352Z,70.50
2018-12-09T01:05:50.054Z,70.08
2018-12-09T01:06:24.748Z,70.09
2018-12-09T01:06:59.309Z,70.38
2018-12-09T01:07:34.476Z,70.42
2018-12-09T01:08:09.215Z,70.91
2018-12-09T01:08:44.269Z,70.50
2018-12-09T01:09:18.912Z,69.85
2018-12-09T01:09:53.582Z,70.27
2018-12-09T01:10:28.167Z,70.10
2018-12-09T01:11:02.829Z,69.58
2018-12-09T01:11:37.532Z,69.76
2018-12-09T01:12:12.125Z,69.18
2018-12-09T01:12:46.694Z,70.00
2018-12-09T01:13:21.305Z,69.71
2018-12-09T01:13:55.949Z,69.81
2018-12-09T01:14:31.024Z,68.56
2018-12-09T01:15:06.818Z,69.22
2018-12-09T01:15:41.836Z,68.61
2018-12-09T01:16:17.317Z,69.84
2018-12-09T01:16:51.888Z,69.82
2018-12-09T01:17:26.474Z,69.61
2018-12-09T01:18:01.234Z,69.20
2018-12-09T01:18:36.019Z,69.64
2018-12-09T01:19:11.339Z,69.77
2018-12-09T01:19:45.924Z,69.36
2018-12-09T01:20:20.940Z,69.06
2018-12-09T01:20:55.970Z,69.89
2018-12-09T01:21:30.649Z,69.16
2018-12-09T01:22:05.240Z,69.15
2018-12-09T01:22:39.829Z,68.62
2018-12-09T01:23:14.873Z,69.57
2018-12-09T01:23:49.425Z,70.17
2018-12-09T01:24:24.401Z,70.71
2018-12-09T01:24:59.041Z,70.59
2018-12-09T01:25:33.708Z,71.25
2018-12-09T01:26:08.536Z,71.85
2018-12-09T01:26:43.690Z,71.15
2018-12-09T01:27:20.737Z,71.11
2018-12-09T01:27:55.892Z,71.62
2018-12-09T01:28:30.510Z,71.66
2018-12-09T01:29:05.122Z,71.51
2018-12-09T01:29:39.858Z,70.81
2018-12-09T01:30:14.901Z,70.81
2018-12-09T01:30:49.487Z,71.30
2018-12-09T01:31:24.113Z,71.25
2018-12-09T01:31:58.708Z,70.84
2018-12-09T01:32:33.666Z,71.63
2018-12-09T01:33:08.629Z,71.72
2018-12-09T01:33:43.244Z,71.12
2018-12-09T01:34:17.873Z,71.02
2018-12-09T01:34:52.548Z,71.73
2018-12-09T01:35:27.777Z,71.36
2018-12-09T01:36:02.580Z,70.87
2018-12-09T01:36:37.528Z,70.86
2018-12-09T01:37:12.110Z,71.04
2018-12-09T01:37:46.660Z,70.89
2018-12-09T01:38:21.252Z,71.28
2018-12-09T01:38:56.778Z,71.44
2018-12-09T01:39:31.494Z,71.86
2018-12-09T01:40:07.598Z,71.34
2018-12-09T01:40:47.479Z,71.78
2018-12-09T01:41:22.166Z,71.66
2018-12-09T01:41:57.463Z,71.02
2018-12-09T01:42:32.239Z,71.42
2018-12-09T01:43:06.980Z,71.55
2018-12-09T01:43:42.057Z,71.15
2018-12-09T01:44:16.650Z,71.30
2018-12-09T01:44:51.780Z,71.27
2018-12-09T01:45:26.738Z,71.18
2018-12-09T01:46:01.347Z,70.92
2018-12-09T01:46:36.009Z,71.08
2018-12-09T01:47:10.664Z,71.07
2018-12-09T01:47:45.320Z,70.61
2018-12-09T01:48:19.939Z,70.51
2018-12-09T01:48:54.989Z,70.64
2018-12-09T01:49:30.144Z,70.57
2018-12-09T01:50:06.272Z,70.98
2018-12-09T01:50:41.181Z,70.90
2018-12-09T01:51:16.221Z,70.82
2018-12-09T01:51:51.336Z,70.50
2018-12-09T01:52:26.890Z,71.12
2018-12-09T01:53:12.554Z,70.91
2018-12-09T01:54:18.629Z,71.08
2018-12-09T01:54:53.223Z,71.05
2018-12-09T01:55:28.013Z,71.18
2018-12-09T01:56:02.696Z,71.18
2018-12-09T01:56:37.640Z,70.93
2018-12-09T01:57:12.279Z,71.44
2018-12-09T01:57:46.890Z,71.20
2018-12-09T01:58:22.640Z,70.96
2018-12-09T01:58:57.347Z,71.31
2018-12-09T01:59:31.949Z,71.09
2018-12-09T02:00:07.612Z,70.60
2018-12-09T02:00:42.842Z,70.59
2018-12-09T02:01:17.901Z,69.67
2018-12-09T02:01:53.513Z,70.46
2018-12-09T02:02:28.125Z,70.25
2018-12-09T02:03:02.937Z,69.49
2018-12-09T02:03:37.636Z,69.26
2018-12-09T02:04:19.201Z,69.20
2018-12-09T02:04:53.776Z,68.94
2018-12-09T02:05:28.377Z,68.52
2018-12-09T02:06:03.130Z,68.55
2018-12-09T02:06:37.792Z,68.61
2018-12-09T02:07:12.717Z,68.72
2018-12-09T02:07:47.299Z,68.95
2018-12-09T02:08:21.936Z,68.44
2018-12-09T02:08:56.539Z,67.24
2018-12-09T02:09:31.476Z,67.89
2018-12-09T02:10:07.008Z,67.52
2018-12-09T02:10:41.628Z,67.18
2018-12-09T02:11:16.270Z,67.20
2018-12-09T02:11:51.883Z,66.79
2018-12-09T02:12:26.993Z,66.42
2018-12-09T02:13:01.633Z,66.72
2018-12-09T02:13:36.323Z,66.20
2018-12-09T02:14:11.240Z,66.72
2018-12-09T02:14:46.058Z,67.00
2018-12-09T02:15:20.642Z,66.14
2018-12-09T02:15:55.241Z,66.59
2018-12-09T02:16:29.868Z,66.14
2018-12-09T02:17:05.730Z,66.22
2018-12-09T02:17:40.792Z,66.22
2018-12-09T02:18:15.402Z,65.67
2018-12-09T02:19:28.589Z,65.90
2018-12-09T02:20:03.396Z,65.58
2018-12-09T02:20:38.115Z,65.70
2018-12-09T02:21:12.913Z,65.87
2018-12-09T02:21:48.509Z,65.77
2018-12-09T02:22:23.097Z,65.81
2018-12-09T02:22:57.693Z,65.77
2018-12-09T02:23:32.865Z,66.50
2018-12-09T02:24:07.682Z,65.94
2018-12-09T02:24:42.861Z,66.41
2018-12-09T02:25:17.469Z,66.00
2018-12-09T02:25:52.077Z,65.36
2018-12-09T02:26:26.690Z,65.63
2018-12-09T02:27:01.369Z,66.01
2018-12-09T02:27:36.221Z,66.11
2018-12-09T02:28:10.956Z,65.75
2018-12-09T02:28:45.566Z,65.64
2018-12-09T02:29:20.249Z,65.42
2018-12-09T02:29:54.859Z,65.23
2018-12-09T02:30:29.917Z,66.32
2018-12-09T02:31:05.099Z,66.17
2018-12-09T02:31:39.775Z,66.06
2018-12-09T02:32:14.496Z,65.98
2018-12-09T02:32:49.174Z,65.65
2018-12-09T02:33:23.822Z,66.10
2018-12-09T02:33:58.729Z,65.91
2018-12-09T02:34:33.645Z,65.98
2018-12-09T02:35:08.657Z,66.01
2018-12-09T02:35:47.191Z,65.49
2018-12-09T02:36:22.027Z,65.54
2018-12-09T02:36:57.126Z,65.19
2018-12-09T02:37:31.795Z,65.34
2018-12-09T02:38:06.492Z,65.52
2018-12-09T02:38:41.273Z,66.13
2018-12-09T02:39:15.841Z,65.12
2018-12-09T02:39:51.227Z,64.77
2018-12-09T02:40:26.273Z,65.53
2018-12-09T02:41:01.196Z,65.65
2018-12-09T02:41:36.386Z,65.70
2018-12-09T02:42:11.450Z,65.14
2018-12-09T02:42:46.145Z,64.86
2018-12-09T02:43:20.892Z,64.43
2018-12-09T02:43:56.446Z,65.21
2018-12-09T02:44:31.046Z,64.80
2018-12-09T02:45:06.435Z,64.82
2018-12-09T02:45:41.073Z,65.07
2018-12-09T02:46:15.642Z,64.95
2018-12-09T02:46:50.286Z,65.02
2018-12-09T02:47:24.923Z,64.71
2018-12-09T02:47:59.508Z,64.65
2018-12-09T02:48:34.236Z,64.40
2018-12-09T02:49:09.398Z,65.03
2018-12-09T02:49:43.960Z,64.86
2018-12-09T02:50:19.086Z,64.76
2018-12-09T02:50:53.712Z,64.85
2018-12-09T02:51:28.715Z,64.97
2018-12-09T02:52:04.184Z,64.69
2018-12-09T02:52:39.209Z,64.65
2018-12-09T02:53:15.080Z,64.92
2018-12-09T02:53:50.470Z,64.64
2018-12-09T02:54:25.084Z,64.97
2018-12-09T02:54:59.737Z,64.75
2018-12-09T02:55:34.317Z,64.75
2018-12-09T02:56:09.399Z,64.79
2018-12-09T02:56:44.315Z,65.54
2018-12-09T02:57:18.998Z,66.61
2018-12-09T02:57:54.393Z,67.03
2018-12-09T02:58:29.276Z,67.19
2018-12-09T02:59:04.552Z,68.36
2018-12-09T02:59:39.793Z,67.65
2018-12-09T03:00:15.338Z,68.33
2018-12-09T03:00:50.412Z,68.86
2018-12-09T03:01:26.135Z,69.23
2018-12-09T03:02:00.864Z,69.46
2018-12-09T03:02:35.478Z,70.45
2018-12-09T03:03:10.469Z,71.41
2018-12-09T03:03:45.530Z,72.00
2018-12-09T03:04:20.093Z,72.76
2018-12-09T03:04:56.111Z,73.09
2018-12-09T03:05:30.802Z,73.32
2018-12-09T03:06:05.865Z,74.08
2018-12-09T03:06:40.447Z,74.18
2018-12-09T03:07:15.342Z,74.31
2018-12-09T03:07:49.925Z,74.34
2018-12-09T03:08:24.943Z,73.65
2018-12-09T03:08:59.718Z,73.68
2018-12-09T03:09:34.369Z,73.83
2018-12-09T03:10:09.177Z,73.76
2018-12-09T03:10:44.009Z,73.70
2018-12-09T03:11:18.640Z,70.96
2018-12-09T03:11:53.517Z,71.74
2018-12-09T03:12:28.254Z,71.00
2018-12-09T03:13:02.940Z,70.74
2018-12-09T03:13:37.495Z,71.13
2018-12-09T03:14:12.094Z,70.93
2018-12-09T03:14:47.236Z,70.54
2018-12-09T03:15:22.266Z,70.41
2018-12-09T03:15:57.262Z,71.15
2018-12-09T03:16:32.047Z,72.14
2018-12-09T03:17:06.809Z,71.46
2018-12-09T03:17:41.555Z,71.84
2018-12-09T03:18:16.517Z,71.78
2018-12-09T03:18:51.076Z,72.06
2018-12-09T03:19:25.775Z,71.81
2018-12-09T03:20:00.376Z,71.11
2018-12-09T03:20:34.981Z,71.31
2018-12-09T03:21:09.556Z,71.22
2018-12-09T03:21:44.125Z,71.49
2018-12-09T03:22:18.716Z,70.58
2018-12-09T03:22:53.295Z,70.69
2018-12-09T03:23:27.954Z,71.33
2018-12-09T03:24:02.973Z,71.35
2018-12-09T03:24:37.553Z,71.53
2018-12-09T03:25:12.138Z,70.99
2018-12-09T03:25:46.763Z,71.64
2018-12-09T03:26:21.370Z,71.49
2018-12-09T03:26:56.559Z,72.02
2018-12-09T03:27:31.232Z,71.86
2018-12-09T03:28:06.307Z,71.93
2018-12-09T03:28:40.960Z,72.38
2018-12-09T03:29:16.006Z,72.03
2018-12-09T03:29:50.617Z,71.94
2018-12-09T03:30:25.925Z,72.68
2018-12-09T03:31:01.009Z,72.45
2018-12-09T03:31:35.630Z,72.71
2018-12-09T03:32:10.198Z,71.75
2018-12-09T03:32:45.049Z,71.85
2018-12-09T03:33:19.873Z,72.32
2018-12-09T03:33:54.593Z,72.19
2018-12-09T03:34:29.256Z,72.83
2018-12-09T03:35:04.737Z,72.46
2018-12-09T03:35:39.319Z,72.73
2018-12-09T03:36:14.178Z,73.20
2018-12-09T03:36:48.774Z,73.52
2018-12-09T03:37:23.493Z,73.02
2018-12-09T03:37:58.253Z,73.38
2018-12-09T03:38:33.008Z,74.16
2018-12-09T03:39:07.921Z,74.04
2018-12-09T03:39:42.484Z,74.41
2018-12-09T03:40:17.486Z,74.62
2018-12-09T03:40:52.090Z,74.17
2018-12-09T03:41:26.758Z,74.26
2018-12-09T03:42:01.392Z,74.09
2018-12-09T03:42:36.004Z,74.87
2018-12-09T03:43:10.590Z,74.33
2018-12-09T03:43:45.174Z,74.98
2018-12-09T03:44:19.738Z,74.97
2018-12-09T03:44:55.044Z,74.66
2018-12-09T03:45:29.979Z,74.48
2018-12-09T03:46:05.444Z,74.16
2018-12-09T03:46:40.025Z,74.45
2018-12-09T03:47:15.045Z,74.33
2018-12-09T03:47:49.635Z,74.60
2018-12-09T03:48:24.231Z,74.41
2018-12-09T03:48:59.030Z,74.64
2018-12-09T03:49:33.650Z,73.80
2018-12-09T03:50:09.436Z,73.90
2018-12-09T03:50:44.002Z,74.51
2018-12-09T03:51:18.694Z,74.43
2018-12-09T03:51:53.682Z,74.36
2018-12-09T03:52:28.745Z,74.37
2018-12-09T03:53:03.577Z,74.71
2018-12-09T03:53:38.306Z,74.31
2018-12-09T03:54:12.948Z,74.47
2018-12-09T03:54:47.603Z,74.37
2018-12-09T03:55:22.171Z,74.58
2018-12-09T03:55:57.582Z,73.91
2018-12-09T03:56:32.146Z,73.86
2018-12-09T03:57:07.242Z,74.10
2018-12-09T03:57:41.925Z,73.27
2018-12-09T03:58:16.504Z,74.01
2018-12-09T03:58:51.452Z,74.20
2018-12-09T03:59:26.040Z,74.34
2018-12-09T04:00:00.606Z,74.02
2018-12-09T04:00:35.993Z,73.65
2018-12-09T04:01:10.619Z,73.83
2018-12-09T04:01:45.705Z,74.05
2018-12-09T04:02:20.287Z,74.50
2018-12-09T04:02:55.232Z,74.38
2018-12-09T04:03:29.801Z,74.28
2018-12-09T04:04:05.622Z,74.58
2018-12-09T04:04:40.237Z,74.06
2018-12-09T04:05:15.332Z,74.42
2018-12-09T04:05:50.466Z,75.08
2018-12-09T04:06:25.115Z,75.01
2018-12-09T04:06:59.672Z,75.32
2018-12-09T04:07:34.485Z,75.06
2018-12-09T04:08:09.567Z,75.09
2018-12-09T04:08:44.160Z,75.28
2018-12-09T04:09:18.769Z,75.52
2018-12-09T04:09:53.606Z,75.62
2018-12-09T04:10:28.251Z,75.76
2018-12-09T04:11:02.920Z,75.54
2018-12-09T04:11:37.820Z,76.01
2018-12-09T04:12:12.514Z,75.09
2018-12-09T04:12:47.114Z,75.78
2018-12-09T04:13:21.698Z,75.90
2018-12-09T04:13:56.655Z,75.46
2018-12-09T04:14:31.266Z,76.35
2018-12-09T04:15:07.576Z,75.79
2018-12-09T04:15:43.285Z,75.97
2018-12-09T04:16:18.325Z,76.75
2018-12-09T04:16:52.879Z,76.53
2018-12-09T04:17:27.753Z,76.12
2018-12-09T04:18:02.348Z,76.27
2018-12-09T04:18:37.442Z,76.78
2018-12-09T04:19:12.332Z,77.04
2018-12-09T04:19:46.895Z,77.34
2018-12-09T04:20:21.486Z,77.74
2018-12-09T04:20:56.051Z,77.60
2018-12-09T04:21:30.654Z,77.02
2018-12-09T04:22:05.306Z,77.46
2018-12-09T04:22:39.977Z,76.85
2018-12-09T04:23:14.690Z,77.19
2018-12-09T04:23:49.313Z,77.55
2018-12-09T04:24:23.901Z,77.08
2018-12-09T04:24:58.774Z,76.71
2018-12-09T04:25:33.388Z,77.21
2018-12-09T04:26:08.019Z,78.63
2018-12-09T04:26:42.932Z,78.95
2018-12-09T04:27:17.591Z,78.47
2018-12-09T04:27:52.263Z,78.93
2018-12-09T04:28:26.831Z,80.06
2018-12-09T04:29:01.556Z,79.25
2018-12-09T04:29:36.322Z,79.30
2018-12-09T04:30:11.022Z,79.95
2018-12-09T04:30:47.328Z,79.79
2018-12-09T04:31:21.970Z,80.62
2018-12-09T04:31:56.946Z,80.17
2018-12-09T04:32:31.603Z,80.38
2018-12-09T04:33:06.445Z,80.31
2018-12-09T04:33:41.062Z,80.67
2018-12-09T04:34:16.330Z,81.13
2018-12-09T04:34:50.981Z,81.00
2018-12-09T04:35:25.883Z,81.51
2018-12-09T04:36:00.500Z,80.69
2018-12-09T04:36:35.259Z,81.62
2018-12-09T04:37:09.970Z,81.55
2018-12-09T04:37:45.015Z,82.18
2018-12-09T04:38:19.581Z,82.20
2018-12-09T04:38:54.160Z,81.93
2018-12-09T04:39:28.750Z,82.19
2018-12-09T04:40:04.277Z,82.03
2018-12-09T04:40:39.281Z,82.51
2018-12-09T04:41:13.933Z,81.54
2018-12-09T04:41:48.850Z,81.70
2018-12-09T04:42:23.521Z,80.95
2018-12-09T04:42:58.197Z,80.14
2018-12-09T04:43:33.364Z,80.02
2018-12-09T04:44:08.133Z,80.02
2018-12-09T04:44:42.975Z,79.92
2018-12-09T04:45:18.062Z,81.03
2018-12-09T04:45:52.730Z,80.54
2018-12-09T04:46:28.017Z,80.42
2018-12-09T04:47:02.632Z,80.80
2018-12-09T04:47:37.329Z,80.49
2018-12-09T04:48:12.286Z,80.88
2018-12-09T04:48:46.900Z,80.63
2018-12-09T04:49:21.640Z,79.97
2018-12-09T04:49:56.248Z,80.49
2018-12-09T04:50:30.863Z,80.81
2018-12-09T04:51:05.729Z,80.39
2018-12-09T04:51:53.393Z,80.33
2018-12-09T04:52:28.107Z,80.41
2018-12-09T04:53:02.860Z,80.37
2018-12-09T04:53:37.738Z,80.02
2018-12-09T04:54:12.349Z,79.87
2018-12-09T04:54:46.960Z,78.73
2018-12-09T04:55:22.029Z,79.53
2018-12-09T04:55:57.203Z,78.76
2018-12-09T04:56:32.497Z,79.44
2018-12-09T04:57:07.182Z,79.82
2018-12-09T04:57:42.008Z,80.42
2018-12-09T04:58:16.905Z,80.21
2018-12-09T04:59:02.169Z,80.87
2018-12-09T04:59:41.623Z,80.16
2018-12-09T05:00:27.610Z,79.89
2018-12-09T05:01:02.224Z,79.93
2018-12-09T05:01:37.154Z,80.33
2018-12-09T05:02:11.752Z,80.34
2018-12-09T05:02:46.382Z,80.45
2018-12-09T05:03:21.300Z,80.55
2018-12-09T05:03:56.360Z,79.96
2018-12-09T05:04:31.001Z,80.46
2018-12-09T05:05:06.243Z,80.95
2018-12-09T05:05:40.840Z,81.06
2018-12-09T05:06:15.578Z,81.10
2018-12-09T05:06:50.524Z,80.79
2018-12-09T05:07:25.295Z,80.72
2018-12-09T05:08:00.121Z,80.37
2018-12-09T05:08:34.741Z,80.72
2018-12-09T05:09:09.546Z,80.20
2018-12-09T05:09:44.185Z,80.64
2018-12-09T05:10:19.143Z,81.22
2018-12-09T05:10:53.781Z,80.28
2018-12-09T05:11:28.413Z,80.75
2018-12-09T05:12:03.038Z,80.09
2018-12-09T05:12:37.625Z,80.82
2018-12-09T05:13:12.234Z,81.28
2018-12-09T05:13:46.931Z,80.76
2018-12-09T05:14:22.222Z,79.48
2018-12-09T05:14:56.873Z,79.08
2018-12-09T05:15:32.118Z,79.33
2018-12-09T05:16:06.804Z,78.67
2018-12-09T05:16:42.218Z,79.21
2018-12-09T05:17:16.836Z,79.22
2018-12-09T05:17:51.486Z,78.39
2018-12-09T05:18:26.426Z,78.94
2018-12-09T05:19:01.244Z,78.40
2018-12-09T05:19:35.894Z,78.66
2018-12-09T05:20:10.935Z,77.59
2018-12-09T05:20:45.757Z,76.88
2018-12-09T05:21:20.351Z,76.76
2018-12-09T05:21:55.055Z,76.88
2018-12-09T05:22:29.983Z,76.45
2018-12-09T05:23:04.772Z,76.80
2018-12-09T05:23:39.560Z,76.22
2018-12-09T05:24:14.190Z,75.70
2018-12-09T05:24:48.765Z,76.51
2018-12-09T05:25:23.359Z,76.36
2018-12-09T05:25:58.359Z,76.57
2018-12-09T05:26:33.173Z,76.82
2018-12-09T05:27:08.028Z,77.00
2018-12-09T05:27:42.621Z,77.23
2018-12-09T05:28:17.244Z,77.17
2018-12-09T05:28:51.873Z,77.04
2018-12-09T05:29:26.679Z,77.09
2018-12-09T05:30:01.325Z,77.21
2018-12-09T05:30:36.020Z,77.28
2018-12-09T05:31:11.191Z,77.42
2018-12-09T05:31:45.825Z,78.29
2018-12-09T05:32:20.923Z,77.89
2018-12-09T05:32:55.706Z,77.95
2018-12-09T05:33:30.464Z,77.42
2018-12-09T05:34:05.089Z,78.55
2018-12-09T05:34:39.784Z,78.24
2018-12-09T05:35:14.454Z,78.97
2018-12-09T05:35:49.075Z,78.44
2018-12-09T05:36:23.685Z,79.20
2018-12-09T05:36:58.468Z,79.06
2018-12-09T05:37:33.572Z,78.95
2018-12-09T05:38:08.222Z,79.10
2018-12-09T05:38:43.086Z,79.73
2018-12-09T05:39:17.701Z,79.21
2018-12-09T05:39:52.344Z,79.98
2018-12-09T05:40:27.787Z,79.96
2018-12-09T05:41:02.927Z,79.42
2018-12-09T05:41:37.582Z,80.29
2018-12-09T05:42:12.176Z,80.01
2018-12-09T05:42:46.799Z,80.39
2018-12-09T05:43:21.448Z,80.27
2018-12-09T05:43:56.241Z,80.45
2018-12-09T05:44:30.917Z,80.51
2018-12-09T05:45:06.582Z,80.40
2018-12-09T05:45:41.212Z,80.09
2018-12-09T05:46:15.833Z,80.60
2018-12-09T05:46:50.455Z,79.94
2018-12-09T05:47:25.201Z,80.34
2018-12-09T05:48:00.402Z,80.43
2018-12-09T05:48:35.041Z,80.66
2018-12-09T05:49:10.047Z,79.91
2018-12-09T05:49:44.630Z,80.22
2018-12-09T05:50:19.961Z,80.65
2018-12-09T05:50:54.958Z,80.18
2018-12-09T05:51:29.523Z,79.77
2018-12-09T05:52:04.637Z,79.12
2018-12-09T05:52:39.225Z,78.38
2018-12-09T05:53:13.830Z,78.89
2018-12-09T05:53:48.415Z,78.90
2018-12-09T05:54:23.015Z,78.91
2018-12-09T05:54:58.166Z,79.08
2018-12-09T05:55:32.965Z,78.91
2018-12-09T05:56:07.570Z,77.46
2018-12-09T05:56:42.158Z,77.62
2018-12-09T05:57:16.750Z,77.41
2018-12-09T05:57:51.436Z,77.41
2018-12-09T05:58:28.226Z,77.73
2018-12-09T05:59:03.097Z,77.99
2018-12-09T05:59:37.710Z,77.33
2018-12-09T06:00:12.349Z,77.14
2018-12-09T06:00:46.964Z,77.98
2018-12-09T06:01:21.646Z,77.47
2018-12-09T06:02:06.671Z,77.58
2018-12-09T06:02:56.117Z,76.52
2018-12-09T06:03:30.886Z,77.34
2018-12-09T06:04:05.571Z,76.82
2018-12-09T06:04:40.391Z,76.07
2018-12-09T06:05:15.008Z,76.17
2018-12-09T06:05:49.714Z,75.92
2018-12-09T06:06:24.727Z,75.45
2018-12-09T06:06:59.599Z,75.86
2018-12-09T06:07:34.376Z,74.45
2018-12-09T06:08:09.579Z,74.28
2018-12-09T06:08:44.247Z,74.71
2018-12-09T06:09:19.438Z,74.93
2018-12-09T06:09:54.215Z,74.37
2018-12-09T06:10:29.253Z,74.56
2018-12-09T06:11:04.293Z,73.92
2018-12-09T06:11:38.960Z,74.24
2018-12-09T06:12:13.564Z,74.58
2018-12-09T06:12:48.177Z,74.67
2018-12-09T06:13:22.790Z,73.98
2018-12-09T06:13:57.729Z,74.28
2018-12-09T06:14:32.698Z,74.63
2018-12-09T06:15:08.266Z,74.09
2018-12-09T06:15:43.077Z,73.74
2018-12-09T06:16:17.795Z,73.80
2018-12-09T06:16:53.291Z,73.70
2018-12-09T06:17:28.237Z,73.80
2018-12-09T06:18:03.395Z,74.35
2018-12-09T06:18:38.300Z,74.58
2018-12-09T06:19:12.996Z,74.20
2018-12-09T06:19:47.605Z,73.95
2018-12-09T06:20:22.197Z,74.27
2018-12-09T06:20:57.030Z,74.68
2018-12-09T06:21:31.709Z,74.10
2018-12-09T06:22:06.348Z,73.71
2018-12-09T06:22:40.926Z,73.85
2018-12-09T06:23:15.593Z,73.96
2018-12-09T06:23:50.249Z,74.13
2018-12-09T06:24:25.047Z,73.87
2018-12-09T06:25:01.082Z,73.48
2018-12-09T06:25:35.776Z,74.33
2018-12-09T06:26:10.374Z,74.03
2018-12-09T06:26:44.995Z,73.70
2018-12-09T06:27:20.087Z,73.88
2018-12-09T06:27:54.744Z,74.11
2018-12-09T06:28:29.666Z,74.25
2018-12-09T06:29:04.870Z,74.58
2018-12-09T06:29:39.591Z,74.60
2018-12-09T06:30:14.206Z,74.35
2018-12-09T06:30:48.861Z,74.06
2018-12-09T06:31:23.499Z,74.72
2018-12-09T06:31:58.623Z,73.99
2018-12-09T06:32:33.336Z,74.37
2018-12-09T06:33:07.966Z,74.16
2018-12-09T06:33:42.584Z,74.70
2018-12-09T06:34:17.224Z,74.55
2018-12-09T06:34:51.800Z,74.38
2018-12-09T06:35:26.763Z,74.56
2018-12-09T06:36:01.488Z,74.17
2018-12-09T06:36:36.156Z,73.96
2018-12-09T06:37:10.750Z,73.68
2018-12-09T06:37:45.691Z,73.14
2018-12-09T06:38:20.289Z,72.87
2018-12-09T06:38:54.951Z,72.79
2018-12-09T06:39:29.903Z,72.90
2018-12-09T06:40:06.273Z,73.28
2018-12-09T06:40:41.481Z,73.14
2018-12-09T06:41:16.094Z,73.20
2018-12-09T06:41:51.152Z,72.92
2018-12-09T06:42:25.917Z,72.50
2018-12-09T06:43:00.935Z,72.46
2018-12-09T06:43:35.623Z,73.02
2018-12-09T06:44:10.241Z,73.41
2018-12-09T06:44:44.868Z,73.75
2018-12-09T06:45:19.567Z,73.48
2018-12-09T06:45:54.184Z,72.80
2018-12-09T06:46:29.318Z,72.67
2018-12-09T06:47:04.152Z,73.65
2018-12-09T06:47:39.067Z,72.72
2018-12-09T06:48:13.777Z,72.91
2018-12-09T06:48:48.401Z,72.64
2018-12-09T06:49:23.008Z,73.32
2018-12-09T06:49:58.211Z,73.28
2018-12-09T06:50:32.966Z,73.25
2018-12-09T06:51:07.585Z,72.93
2018-12-09T06:51:42.254Z,72.58
2018-12-09T06:52:16.986Z,72.79
2018-12-09T06:52:51.585Z,73.09
2018-12-09T06:53:27.018Z,73.02
2018-12-09T06:54:02.054Z,72.67
2018-12-09T06:54:36.902Z,72.07
2018-12-09T06:55:11.632Z,72.56
2018-12-09T06:55:46.317Z,72.42
2018-12-09T06:56:21.033Z,71.95
2018-12-09T06:56:56.243Z,72.02
2018-12-09T06:57:31.589Z,71.26
2018-12-09T06:58:06.301Z,71.84
2018-12-09T06:58:41.578Z,72.21
2018-12-09T06:59:16.192Z,71.16
2018-12-09T06:59:51.285Z,71.26
2018-12-09T07:00:26.492Z,71.35
2018-12-09T07:01:01.189Z,71.50
2018-12-09T07:01:36.596Z,71.58
2018-12-09T07:02:11.625Z,71.50
2018-12-09T07:02:46.245Z,71.03
2018-12-09T07:03:20.848Z,71.58
2018-12-09T07:03:55.658Z,71.10
2018-12-09T07:04:30.413Z,71.48
2018-12-09T07:05:06.538Z,71.87
2018-12-09T07:05:41.452Z,71.26
2018-12-09T07:06:16.054Z,70.67
2018-12-09T07:06:50.688Z,71.07
2018-12-09T07:07:27.597Z,70.45
2018-12-09T07:08:02.710Z,70.62
2018-12-09T07:08:37.324Z,70.51
2018-12-09T07:09:11.975Z,70.76
2018-12-09T07:09:46.770Z,71.43
2018-12-09T07:10:21.393Z,71.06
2018-12-09T07:10:56.048Z,70.83
2018-12-09T07:11:30.732Z,70.49
2018-12-09T07:12:05.369Z,70.70
2018-12-09T07:12:40.037Z,70.53
2018-12-09T07:13:14.689Z,70.36
2018-12-09T07:13:49.394Z,70.36
2018-12-09T07:14:24.067Z,70.32
2018-12-09T07:14:59.149Z,70.16
2018-12-09T07:15:34.902Z,69.61
2018-12-09T07:16:09.574Z,69.80
2018-12-09T07:16:44.810Z,69.46
2018-12-09T07:17:19.375Z,69.09
2018-12-09T07:17:54.038Z,69.79
2018-12-09T07:18:28.753Z,69.17
2018-12-09T07:19:03.923Z,70.14
2018-12-09T07:19:38.490Z,70.63
2018-12-09T07:20:13.898Z,69.69
2018-12-09T07:20:48.511Z,69.74
2018-12-09T07:21:23.079Z,69.33
2018-12-09T07:21:57.728Z,70.25
2018-12-09T07:22:32.518Z,69.10
2018-12-09T07:23:07.156Z,68.96
2018-12-09T07:23:41.721Z,69.48
2018-12-09T07:24:16.865Z,69.12
2018-12-09T07:24:51.424Z,69.16
2018-12-09T07:25:26.745Z,68.90
2018-12-09T07:26:01.906Z,68.97
2018-12-09T07:26:36.678Z,69.27
2018-12-09T07:27:11.250Z,68.86
2018-12-09T07:27:45.840Z,69.14
2018-12-09T07:28:20.427Z,68.97
2018-12-09T07:28:55.125Z,68.62
2018-12-09T07:29:29.866Z,68.98
2018-12-09T07:30:06.177Z,69.15
2018-12-09T07:30:40.754Z,68.48
2018-12-09T07:31:15.988Z,69.20